Relevés horaires Beauvechain (Belgique)


Relevés horaires à Beauvechain - Mardi 16 Juin 2020
Heure UTC1 Température [°C] Vent [km/h] Hum. [%] Pres.4 [hPa] Visi. [Km] Nébu. [octa] Préc.5 [mm] Cond.
2m. Res. Ros. Dir.2 Vit. Moy. Raf.3
23:00 16.5 16.5 14.2 NNO 1.9 -- 3.7 86 1013.6(0.0/3h) 20 -- -- --
22:00 17.0 17.0 14.5 NNO 1.9 -- 5.6 85 1013.6(0.5/3h) 20 -- -- --
21:00 18.2 18.2 13.7 NNO 1.9 -- 13.0 75 1013.5(0.5/3h) 20 -- -- --
20:00 18.7 18.7 14.2 NNO 1.9 -- 9.3 75 1013.3(0.2/3h) 20 -- -- --
19:00 20.0 20.0 13.8 SE 5.6 -- 13.0 67 1013(-0.3/3h) 20 -- -- --
18:00 21.3 21.3 13.5 E 5.6 -- 14.8 61 1012.7(-1.0/3h) 20 -- -- --
17:00 23.2 23.2 12.2 NNO 1.9 -- 7.4 50 1012.8(-1.2/3h) 20 -- -- --
15:00 22.8 22.8 12.5 SO 5.6 -- 14.8 52 1013.7(-1.0/3h) 20 6/8 -- --
14:00 21.0 21.0 13.8 SO 7.4 -- 14.8 63 1014.2(-0.8/3h) 20 6/8 -- --
13:00 22.6 22.6 12.0 SSO 3.7 -- 11.1 51 1014.2(-1.1/3h) 20 6/8 -- --
12:00 21.7 21.7 12.9 SO 3.7 -- 9.3 57 1014.7(-1.0/3h) 20 6/8 -- --
11:00 21.8 21.8 12.8 OSO 3.7 -- 9.3 57 1015.1(-0.8/3h) 20 6/8 -- --
10:00 20.9 20.9 12.9 SO 3.7 -- 9.3 60 1015.6(-0.5/3h) 20 6/8 -- --
09:00 19.8 19.8 13.9 SO 5.6 -- 9.3 69 1016.1(0.2/3h) 20 6/8 -- --
08:00 19.8 19.8 13.9 SO 5.6 -- 9.3 69 1016.1(0.2/3h) 20 6/8 -- --
07:00 17.5 17.5 13.0 SO 5.6 -- 7.4 75 1016.2(0.3/3h) 20 6/8 -- --
06:00 15.6 15.6 12.5 SO 3.7 -- 7.4 82 1016.2(0.2/3h) 20 6/8 -- --
05:00 15.1 15.1 12.0 SSO 3.7 -- 5.6 82 1016.1(-0.1/3h) 20 -- -- --
04:00 14.6 14.6 11.4 SO 3.7 -- 7.4 81 1016.1(-0.4/3h) 20 -- -- --
03:00 14.9 14.9 11.3 SO 5.6 -- 7.4 79 1016.1(-0.5/3h) 20 -- -- --
02:00 15.6 15.6 11.2 SO 3.7 -- 7.4 75 1016.2(-0.7/3h) 20 -- -- --
01:00 16.2 16.2 11.5 SSO 5.6 -- 7.4 74 1016.5(-0.4/3h) 20 -- -- --
00:00 17.4 17.4 12.3 SSO 3.7 -- 11.1 72 1016.5(-0.3/3h) 20 -- -- --

1 Coordinated Universal Time. Actuellement il est 21:00 locale et 19:00 UTC.

2 Le vent souffle depuis la direction indiquée vers la direction oposée.

3 Les rafales max. sont disponible 40 min après l'heure du relevé.

4 Pour les stations d'altitude (plus de 600m) le géopotentiel du niveau le plus proche de la pression obligatoire est indiqué.

5 Les stations disposant d'un diffuseur peuvent indiquer "trace". Cela signifie que des précipitations ont touchés le sol mais que la quantité est inférieure à 0.1 mm.

Récapitulatif de la journée
Température [°C] Vent [km/h] Ensoleillement4 [h] Precipitations totale5 [mm] Pression [Hpa]
Min1 Max.2 Moy.3 Max. Min Max.
14.5 23.6 0 14.8 0 h 0 min 0 1012.7 1016.5

1 Température minimale relevée entre 18:00 UTC la veille et 18:00 UTC le jour donné.

2 Température maximale relevée entre 06:00 UTC le jour donné et 06:00 UTC le lendemain.

3 Vent moyen de la journée basé sur les relevés horaires.

4 Ensoleillement en heures relevé entre 06:00 UTC la veille et 06:00 UTC le jour donné.

5 Précipitations totales tombées entre 06:00 UTC la jour donné et 06:00 UTC le lendemain.

Graphiques horaires